createdAt,value
2022-10-31T21:37:08.093Z,67.30
2022-10-31T21:39:38.269Z,66.71
2022-10-31T21:42:07.409Z,64.94
2022-10-31T21:44:34.559Z,64.26
2022-10-31T21:47:01.637Z,63.37
2022-10-31T21:49:29.233Z,62.50
2022-10-31T21:51:58.674Z,62.10
2022-10-31T21:54:30.043Z,61.42
2022-10-31T21:57:00.491Z,60.84
2022-10-31T21:59:28.996Z,60.81
2022-10-31T22:01:58.386Z,60.31
2022-10-31T22:04:27.910Z,59.41
2022-10-31T22:06:55.974Z,59.65
2022-10-31T22:09:24.624Z,58.87
2022-10-31T22:11:54.031Z,58.87
2022-10-31T22:14:22.352Z,58.46
2022-10-31T22:21:24.712Z,57.81
2022-10-31T22:23:55.563Z,57.56
2022-10-31T22:26:23.511Z,57.46
2022-10-31T22:28:53.554Z,56.94
2022-10-31T22:31:23.856Z,56.96
2022-10-31T22:33:52.568Z,56.83
2022-10-31T22:36:27.286Z,56.18
2022-10-31T22:38:54.617Z,56.31
2022-10-31T22:41:25.757Z,56.17
2022-10-31T22:43:55.232Z,56.00
2022-10-31T22:46:28.539Z,55.92
2022-10-31T22:49:02.647Z,55.51
2022-10-31T22:51:33.449Z,55.27
2022-10-31T22:54:00.902Z,55.25
2022-10-31T22:56:31.904Z,55.19
2022-10-31T22:59:00.385Z,55.58
2022-10-31T23:01:31.127Z,55.22
2022-10-31T23:03:58.844Z,54.85
2022-10-31T23:06:30.285Z,54.83
2022-10-31T23:08:57.806Z,54.98
2022-10-31T23:11:32.400Z,54.57
2022-10-31T23:14:15.773Z,54.59
2022-10-31T23:16:47.065Z,54.54
2022-10-31T23:19:19.496Z,54.36
2022-10-31T23:21:56.664Z,54.02
2022-10-31T23:24:38.693Z,53.94
2022-10-31T23:27:22.339Z,54.13
2022-10-31T23:29:53.182Z,54.02
2022-10-31T23:32:31.815Z,53.91
2022-10-31T23:35:02.045Z,53.71
2022-10-31T23:37:32.518Z,53.44
2022-10-31T23:40:00.419Z,53.87
2022-10-31T23:42:28.477Z,53.44
2022-10-31T23:44:56.014Z,53.74
2022-10-31T23:47:23.780Z,53.46
2022-10-31T23:49:51.304Z,53.79
2022-10-31T23:52:19.150Z,53.22
2022-10-31T23:54:46.896Z,52.78
2022-10-31T23:57:15.494Z,53.08
2022-10-31T23:59:43.168Z,53.43
